Time;durP1;ratioP1;P1;durP2;ratioP2;P2;SDS_P1;SDS_P2;PMS_P1;PMS_P2;Temp;Humidity;BMP_temperature;BMP_pressure;BME280_temperature;BME280_humidity;BME280_pressure;Samples;Min_cycle;Max_cycle;Signal;HPM_P1;HPM_P2
2022/12/10 00:04:28;;;;;;;84.50;35.30;;;;;;;0.40;100.00;99978.09;5297288;55;1138993;-68
2022/12/10 00:09:33;;;;;;;94.77;40.00;;;;;;;0.35;100.00;99969.18;5280131;55;1138865;-72
2022/12/10 00:14:39;;;;;;;97.40;41.20;;;;;;;0.29;100.00;99972.52;5280366;55;1138715;-68
2022/12/10 00:19:45;;;;;;;91.67;38.80;;;;;;;0.24;100.00;99964.92;5300721;55;1138853;-72
2022/12/10 00:24:51;;;;;;;86.57;35.92;;;;;;;0.29;100.00;99972.07;5280360;55;1138594;-67
2022/12/10 00:29:56;;;;;;;87.20;39.57;;;;;;;0.34;100.00;99969.24;5280509;55;1138715;-68
2022/12/10 00:35:02;;;;;;;99.73;41.63;;;;;;;0.38;100.00;99973.86;5206668;55;1138907;-67
2022/12/10 00:40:10;;;;;;;89.83;39.40;;;;;;;0.41;100.00;99977.17;5295784;55;1138927;-70
2022/12/10 00:45:16;;;;;;;97.53;41.43;;;;;;;0.42;100.00;99972.36;5367945;54;1138709;-71
2022/12/10 00:50:21;;;;;;;89.27;39.67;;;;;;;0.43;100.00;99972.75;5408461;54;1138826;-70
2022/12/10 00:55:27;;;;;;;95.87;39.43;;;;;;;0.39;100.00;99975.55;5408195;54;1139074;-68
2022/12/10 01:00:32;;;;;;;87.30;39.00;;;;;;;0.39;100.00;99980.75;5391416;54;1138951;-72
2022/12/10 01:05:38;;;;;;;95.40;40.67;;;;;;;0.35;100.00;99977.44;5315944;55;1138841;-70
2022/12/10 01:10:50;;;;;;;89.05;37.40;;;;;;;0.33;100.00;99977.95;5298778;55;1138906;-72
2022/12/10 01:15:56;;;;;;;86.17;37.30;;;;;;;0.34;100.00;99980.49;5316044;55;1138629;-70
2022/12/10 01:21:10;;;;;;;88.00;37.53;;;;;;;0.32;100.00;99988.81;5318624;54;1139025;-70
2022/12/10 01:26:26;;;;;;;94.30;40.35;;;;;;;0.34;100.00;99980.49;5418176;54;1138907;-71
2022/12/10 01:31:36;;;;;;;82.93;37.30;;;;;;;0.38;100.00;99988.16;5386591;54;1138780;-69
2022/12/10 01:36:46;;;;;;;89.33;41.60;;;;;;;0.43;100.00;99983.61;5301951;55;1138788;-70
2022/12/10 01:41:59;;;;;;;98.15;39.75;;;;;;;0.41;100.00;99986.28;5299853;55;1138928;-67
2022/12/10 01:47:04;;;;;;;92.55;39.18;;;;;;;0.44;100.00;99984.84;5190746;56;1138905;-71
2022/12/10 01:52:12;;;;;;;87.65;36.93;;;;;;;0.47;100.00;99985.98;5187020;56;1138916;-69
2022/12/10 01:57:27;;;;;;;77.50;33.93;;;;;;;0.45;100.00;99985.23;5177646;56;1139059;-69
2022/12/10 02:02:58;;;;;;;92.80;37.80;;;;;;;0.36;100.00;99986.93;5243337;55;1138774;-69
2022/12/10 02:08:35;;;;;;;88.10;36.47;;;;;;;0.37;100.00;99974.77;5266046;55;1138638;-69
2022/12/10 02:13:46;;;;;;;84.70;37.07;;;;;;;0.38;100.00;99973.86;5253741;55;1138741;-69
2022/12/10 02:18:59;;;;;;;96.08;39.45;;;;;;;0.37;100.00;99974.31;5278827;55;1139105;-70
2022/12/10 02:24:10;;;;;;;87.65;36.10;;;;;;;0.33;100.00;99972.75;5279018;55;1138671;-68
2022/12/10 02:29:24;;;;;;;87.13;39.90;;;;;;;0.36;100.00;99980.42;5273984;55;1138656;-69
2022/12/10 02:34:32;;;;;;;;;;;;;;;0.40;100.00;99975.48;5258965;55;1138987;-70
2022/12/10 02:39:45;;;;;;;82.93;35.67;;;;;;;0.44;100.00;99977.05;5284989;55;971907;-71
2022/12/10 02:44:53;;;;;;;84.37;36.53;;;;;;;0.39;100.00;99979.00;5280112;55;1136658;-69
2022/12/10 02:50:00;;;;;;;91.73;38.23;;;;;;;0.37;100.00;99970.41;5280250;54;1138969;-69
2022/12/10 02:55:09;;;;;;;85.07;36.00;;;;;;;0.40;100.00;99977.24;5300327;55;1139128;-70
2022/12/10 03:00:19;;;;;;;82.77;36.20;;;;;;;0.41;100.00;99979.78;5279896;55;1138670;-69
2022/12/10 03:06:04;;;;;;;87.00;38.60;;;;;;;0.45;100.00;99974.84;5278704;55;1138644;-67
2022/12/10 03:11:20;;;;;;;93.00;37.30;;;;;;;0.44;100.00;99979.64;5280044;55;1139117;-67
2022/12/10 03:16:30;;;;;;;84.85;37.70;;;;;;;0.47;100.00;99985.14;5299802;55;1138921;-69
2022/12/10 03:21:39;;;;;;;86.40;35.93;;;;;;;0.51;100.00;99972.39;5279970;55;1138859;-70
2022/12/10 03:26:49;;;;;;;102.90;48.28;;;;;;;0.50;100.00;99981.11;5279790;55;1138656;-70
2022/12/10 03:31:56;;;;;;;94.43;41.63;;;;;;;0.48;100.00;99980.33;5233614;55;1141043;-70
2022/12/10 03:37:02;;;;;;;81.63;39.33;;;;;;;0.39;100.00;99979.45;5275725;55;1138954;-67
2022/12/10 03:42:08;;;;;;;82.23;36.60;;;;;;;0.37;100.00;99980.81;5280457;55;1138664;-68
2022/12/10 03:47:15;;;;;;;95.97;39.97;;;;;;;0.33;100.00;99983.16;5282985;54;1138692;-72
2022/12/10 03:52:21;;;;;;;91.33;40.30;;;;;;;0.33;100.00;99986.60;5380633;54;1138966;-68
2022/12/10 03:57:27;;;;;;;96.87;42.60;;;;;;;0.37;100.00;99992.52;5375690;55;1138810;-71
2022/12/10 04:02:33;;;;;;;100.03;45.20;;;;;;;0.41;100.00;99995.38;5368000;54;1138768;-68
2022/12/10 04:07:39;;;;;;;147.27;68.93;;;;;;;0.43;100.00;99994.86;5332808;55;1141179;-68
2022/12/10 04:16:26;;;;;;;114.07;49.63;;;;;;;0.44;100.00;99993.11;5340149;54;1140917;-68
2022/12/10 04:17:52;;;;;;;113.37;48.03;;;;;;;0.46;100.00;99998.61;5362608;54;1140846;-67
2022/12/10 04:28:22;;;;;;;95.90;42.97;;;;;;;0.54;100.00;99996.52;5396376;54;1138920;-71
2022/12/10 04:33:28;;;;;;;96.97;40.73;;;;;;;0.52;100.00;100002.70;5314430;55;1138766;-68
2022/12/10 04:38:38;;;;;;;87.60;39.33;;;;;;;0.46;100.00;99994.70;5283621;55;1140814;-72
2022/12/10 04:43:44;;;;;;;86.60;37.93;;;;;;;0.44;100.00;99995.25;5337080;55;1138934;-68
2022/12/10 04:48:49;;;;;;;79.17;37.33;;;;;;;0.38;100.00;99993.37;5311582;55;1138589;-69
2022/12/10 04:53:56;;;;;;;84.03;36.77;;;;;;;0.33;100.00;99987.06;5247456;55;1174059;-68
2022/12/10 04:59:02;;;;;;;76.40;33.73;;;;;;;0.33;100.00;99984.00;5239099;55;1139100;-69
2022/12/10 05:04:12;;;;;;;71.15;33.38;;;;;;;0.30;100.00;99988.52;5272753;55;1139000;-68
2022/12/10 05:09:18;;;;;;;78.07;35.35;;;;;;;0.26;100.00;99994.30;5195855;55;1138819;-69
2022/12/10 05:14:25;;;;;;;69.17;32.60;;;;;;;0.18;100.00;99999.43;5188919;55;1138870;-71
2022/12/10 05:19:31;;;;;;;61.67;29.00;;;;;;;0.14;100.00;99996.59;5184171;54;1139138;-68
2022/12/10 05:24:38;;;;;;;66.37;32.30;;;;;;;0.13;100.00;99999.66;5130303;55;1138676;-70
2022/12/10 05:29:45;;;;;;;67.00;31.30;;;;;;;0.08;100.00;100002.89;5115624;55;1138733;-67
2022/12/10 05:34:50;;;;;;;59.63;29.50;;;;;;;0.07;100.00;100011.60;5212349;54;1140933;-67
2022/12/10 05:39:57;;;;;;;63.45;30.30;;;;;;;0.00;100.00;100016.20;5192571;55;1140997;-69
2022/12/10 05:45:02;;;;;;;58.63;28.53;;;;;;;0.07;100.00;100024.60;5190433;55;1141081;-70
2022/12/10 05:50:09;;;;;;;60.40;28.12;;;;;;;0.08;100.00;100025.00;5230151;54;1140722;-66
2022/12/10 05:55:16;;;;;;;64.40;29.50;;;;;;;0.09;100.00;100017.59;5277800;54;1141144;-70
2022/12/10 06:00:23;;;;;;;62.83;29.27;;;;;;;0.10;100.00;100024.93;5327630;54;1140973;-68
2022/12/10 06:05:28;;;;;;;56.83;27.23;;;;;;;0.10;100.00;100028.38;5279587;54;1141099;-71
2022/12/10 06:10:36;;;;;;;60.80;30.57;;;;;;;0.13;100.00;100028.70;5241487;55;1140768;-67
2022/12/10 06:15:43;;;;;;;74.63;32.73;;;;;;;0.15;100.00;100034.69;5175610;55;1140900;-69
2022/12/10 06:20:48;;;;;;;68.00;29.52;;;;;;;0.14;100.00;100032.55;5205400;54;1140728;-68
2022/12/10 06:25:54;;;;;;;65.90;30.40;;;;;;;0.10;100.00;100041.38;5212351;54;1140865;-70
2022/12/10 06:31:01;;;;;;;69.32;30.82;;;;;;;0.03;100.00;100045.13;5312809;54;1140895;-68
2022/12/10 06:36:10;;;;;;;61.53;29.40;;;;;;;0.03;100.00;100043.83;5280687;54;1141270;-68
2022/12/10 06:41:20;;;;;;;60.70;28.73;;;;;;;0.05;100.00;100045.91;5181520;54;1140873;-68
2022/12/10 06:46:28;;;;;;;69.77;30.50;;;;;;;0.07;100.00;100044.55;5278918;54;1141073;-68
2022/12/10 06:51:34;;;;;;;63.63;31.47;;;;;;;0.05;100.00;100049.81;5272681;54;1140752;-70
2022/12/10 06:56:40;;;;;;;59.27;29.53;;;;;;;0.05;100.00;100049.81;5214060;54;1140739;-68
2022/12/10 07:01:47;;;;;;;58.03;26.90;;;;;;;0.04;100.00;100051.17;5126671;55;1140764;-69
2022/12/10 07:06:54;;;;;;;53.85;26.65;;;;;;;0.06;100.00;100054.11;5099452;55;1140777;-70
2022/12/10 07:12:00;;;;;;;60.50;28.90;;;;;;;0.08;100.00;100050.99;5100363;56;1141086;-70
2022/12/10 07:17:05;;;;;;;74.03;33.28;;;;;;;0.06;100.00;100054.11;5091789;56;1140964;-71
2022/12/10 07:22:11;;;;;;;62.65;28.25;;;;;;;0.09;100.00;100049.23;5091923;56;1141042;-70
2022/12/10 07:27:17;;;;;;;66.45;29.48;;;;;;;0.02;100.00;100053.84;5181014;55;1140894;-71
2022/12/10 07:32:23;;;;;;;65.83;27.67;;;;;;;0.03;100.00;100059.43;5160309;55;1140937;-68
2022/12/10 07:37:28;;;;;;;59.93;26.47;;;;;;;0.05;100.00;100055.02;5108211;55;1140794;-66
2022/12/10 07:42:34;;;;;;;59.93;27.30;;;;;;;0.05;100.00;100052.87;5104292;56;1140974;-67
2022/12/10 07:47:40;;;;;;;68.17;28.37;;;;;;;0.06;100.00;100046.77;5092748;55;1140911;-68
2022/12/10 07:52:46;;;;;;;40.77;19.90;;;;;;;0.04;100.00;100050.72;5092186;55;1140877;-69
2022/12/10 07:57:51;;;;;;;48.23;22.30;;;;;;;0.03;100.00;100041.23;5111103;55;1140783;-71
2022/12/10 08:02:57;;;;;;;63.42;25.30;;;;;;;0.03;100.00;100039.09;5146945;55;1141000;-69
2022/12/10 08:08:03;;;;;;;54.05;23.80;;;;;;;0.03;100.00;100039.93;5184059;55;1141111;-66
2022/12/10 08:13:09;;;;;;;71.13;28.27;;;;;;;0.00;100.00;100043.98;5257203;54;1150483;-70
2022/12/10 08:18:14;;;;;;;143.44;49.12;;;;;;;0.06;100.00;100051.96;5267026;54;1140910;-67
2022/12/10 08:23:20;;;;;;;83.85;34.88;;;;;;;0.07;100.00;100056.25;5267264;54;1142862;-69
2022/12/10 08:28:25;;;;;;;88.90;37.53;;;;;;;0.08;100.00;100069.64;5287801;54;1140738;-73
2022/12/10 08:33:36;;;;;;;80.03;29.90;;;;;;;0.06;100.00;100069.70;5194764;54;1140823;-67
2022/12/10 08:38:42;;;;;;;64.10;24.90;;;;;;;0.10;100.00;100059.58;5134022;55;1140899;-66
2022/12/10 08:43:51;;;;;;;72.80;34.43;;;;;;;0.11;100.00;100057.83;5197606;55;1140928;-69
2022/12/10 08:48:58;;;;;;;48.02;23.40;;;;;;;0.12;100.00;100067.31;5178312;54;1140894;-71
2022/12/10 08:54:04;;;;;;;83.80;52.77;;;;;;;0.14;100.00;100064.20;5178283;55;1140923;-72
2022/12/10 08:59:10;;;;;;;44.37;20.97;;;;;;;0.14;100.00;100064.20;5198603;55;1140946;-68
2022/12/10 09:04:15;;;;;;;53.52;25.02;;;;;;;0.15;100.00;100073.70;5182067;55;1140736;-69
2022/12/10 09:09:21;;;;;;;58.73;23.30;;;;;;;0.17;100.00;100071.39;5181884;55;1140909;-70
2022/12/10 09:14:28;;;;;;;56.00;24.23;;;;;;;0.18;100.00;100072.24;5140971;55;1140794;-69
2022/12/10 09:19:34;;;;;;;96.73;38.50;;;;;;;0.19;100.00;100077.83;5114241;55;1140842;-70
2022/12/10 09:24:40;;;;;;;82.80;34.47;;;;;;;0.17;100.00;100083.09;5109148;55;1140793;-68
2022/12/10 09:29:46;;;;;;;75.83;34.47;;;;;;;0.20;100.00;100079.53;5114560;56;1140803;-71
2022/12/10 09:34:55;;;;;;;77.20;31.60;;;;;;;0.22;100.00;100085.52;5161437;55;1140710;-68
2022/12/10 09:40:03;;;;;;;93.00;32.90;;;;;;;0.25;100.00;100078.89;5183598;55;1140883;-67
2022/12/10 09:45:50;;;;;;;43.25;19.95;;;;;;;0.23;100.00;100078.95;5189608;55;1150348;-68
2022/12/10 09:51:17;;;;;;;85.17;33.33;;;;;;;0.27;100.00;100079.67;5189369;55;1140822;-69
2022/12/10 09:56:27;;;;;;;77.27;39.53;;;;;;;0.26;100.00;100069.72;5209490;55;1140997;-69
2022/12/10 10:01:36;;;;;;;45.58;21.35;;;;;;;0.24;100.00;100065.03;5198235;54;1141185;-67
2022/12/10 10:06:43;;;;;;;81.77;32.07;;;;;;;0.22;100.00;100053.85;5190439;55;1140850;-68
2022/12/10 10:11:49;;;;;;;43.33;19.50;;;;;;;0.24;100.00;100059.84;5215635;54;1140910;-66
2022/12/10 10:17:04;;;;;;;48.63;20.77;;;;;;;0.27;100.00;100064.06;5190814;55;1140782;-71
2022/12/10 10:22:12;;;;;;;43.15;20.70;;;;;;;0.29;100.00;100065.70;5190991;55;1140999;-65
2022/12/10 10:27:21;;;;;;;38.42;17.73;;;;;;;0.27;100.00;100056.27;5210767;54;1140861;-69
2022/12/10 10:32:37;;;;;;;39.43;17.90;;;;;;;0.30;100.00;100055.69;5161505;55;1141034;-67
2022/12/10 10:37:44;;;;;;;40.40;19.60;;;;;;;0.34;100.00;100057.22;4967024;56;1140669;-69
2022/12/10 10:42:52;;;;;;;44.23;19.97;;;;;;;0.32;100.00;100055.59;4991143;57;1140779;-67
2022/12/10 10:48:16;;;;;;;38.83;18.73;;;;;;;0.31;100.00;100059.10;4985502;56;1140695;-71
2022/12/10 10:53:34;;;;;;;46.10;21.07;;;;;;;0.34;100.00;100052.47;5047952;56;1141036;-68
2022/12/10 10:59:16;;;;;;;35.33;17.83;;;;;;;0.38;100.00;100059.23;4979419;56;1140921;-68
2022/12/10 11:04:48;;;;;;;37.57;17.73;;;;;;;0.41;100.00;100048.70;5129272;55;1141002;-68
2022/12/10 11:09:55;;;;;;;40.23;20.33;;;;;;;0.38;100.00;100037.13;5013575;54;1140748;-68
2022/12/10 11:15:02;;;;;;;38.77;17.33;;;;;;;0.37;100.00;100026.34;5132932;54;1140946;-69
2022/12/10 11:20:24;;;;;;;33.23;17.07;;;;;;;0.38;100.00;100036.28;5153041;55;1140795;-69
2022/12/10 11:25:43;;;;;;;34.67;17.70;;;;;;;0.40;100.00;100031.86;5109911;54;1141164;-66
2022/12/10 11:30:56;;;;;;;34.57;15.33;;;;;;;0.42;100.00;100037.85;5123616;54;1140853;-71
2022/12/10 11:36:24;;;;;;;;;;;;;;;0.42;100.00;100037.39;5036191;56;1141026;-68
2022/12/10 11:41:50;;;;;;;39.17;19.30;;;;;;;0.43;100.00;100042.14;5238384;55;973953;-70
2022/12/10 11:47:06;;;;;;;41.20;18.40;;;;;;;0.40;100.00;100035.31;5203367;55;1138774;-71
2022/12/10 11:52:40;;;;;;;31.30;17.15;;;;;;;0.43;100.00;100034.34;5203785;55;1140888;-69
2022/12/10 11:58:11;;;;;;;46.48;20.60;;;;;;;0.43;100.00;100033.04;5223666;55;1140810;-71
2022/12/10 12:03:39;;;;;;;49.00;21.13;;;;;;;0.40;100.00;100026.66;5166018;55;1141016;-66
2022/12/10 12:09:10;;;;;;;43.97;20.53;;;;;;;0.42;100.00;100029.59;5186825;55;1140806;-72
2022/12/10 12:14:26;;;;;;;40.88;20.17;;;;;;;0.41;100.00;100027.90;5191562;55;1140881;-70
2022/12/10 12:19:45;;;;;;;34.07;17.23;;;;;;;0.42;100.00;100032.19;5211609;55;1140836;-71
2022/12/10 12:25:00;;;;;;;34.57;16.63;;;;;;;0.42;100.00;100032.19;5160955;54;1140811;-70
2022/12/10 12:30:15;;;;;;;37.38;19.60;;;;;;;0.37;100.00;100030.23;5145981;55;1140903;-71
2022/12/10 12:35:51;;;;;;;39.13;19.37;;;;;;;0.37;100.00;100031.54;5168555;54;1140966;-71
2022/12/10 12:41:02;;;;;;;34.07;17.20;;;;;;;0.41;100.00;100038.76;5104473;55;1141056;-68
2022/12/10 12:46:30;;;;;;;40.70;20.77;;;;;;;0.38;100.00;100038.44;5124128;55;1140978;-68
2022/12/10 12:51:46;;;;;;;40.27;18.27;;;;;;;0.35;100.00;100043.30;5104943;54;1140965;-71
2022/12/10 12:57:16;;;;;;;45.77;20.90;;;;;;;0.37;100.00;100047.60;5176615;55;1140818;-72
2022/12/10 13:02:59;;;;;;;44.55;20.37;;;;;;;0.34;100.00;100042.07;5181935;54;1140772;-72
2022/12/10 13:08:30;;;;;;;37.08;19.85;;;;;;;0.36;100.00;100048.05;5178287;54;1140962;-69
2022/12/10 13:13:41;;;;;;;34.43;15.87;;;;;;;0.34;100.00;100053.77;5168621;55;1140871;-71
2022/12/10 13:18:46;;;;;;;45.00;19.20;;;;;;;0.28;100.00;100052.76;5122540;55;1140872;-69
2022/12/10 13:23:55;;;;;;;41.77;21.03;;;;;;;0.22;100.00;100051.25;5102060;55;1140927;-72
2022/12/10 13:29:25;;;;;;;58.80;24.07;;;;;;;0.23;100.00;100056.84;5101384;55;1140944;-68
2022/12/10 13:34:36;;;;;;;45.73;22.33;;;;;;;0.23;100.00;100059.45;5103699;55;1140850;-70
2022/12/10 13:40:10;;;;;;;37.27;18.53;;;;;;;0.24;100.00;100062.89;5178031;55;1140925;-68
2022/12/10 13:45:26;;;;;;;42.97;20.63;;;;;;;0.20;100.00;100060.02;5178511;54;1140901;-68
2022/12/10 13:50:50;;;;;;;45.83;20.50;;;;;;;0.20;100.00;100061.33;5178425;54;1140767;-69
2022/12/10 13:56:16;;;;;;;50.73;19.73;;;;;;;0.15;100.00;100073.70;5174723;55;1140814;-69
2022/12/10 14:01:29;;;;;;;30.53;11.33;;;;;;;0.12;100.00;100075.11;5194979;55;1140934;-70
2022/12/10 14:06:39;;;;;;;32.85;13.85;;;;;;;0.08;100.00;100089.14;5185797;55;1140958;-70
2022/12/10 14:11:57;;;;;;;26.70;12.93;;;;;;;-0.05;100.00;100097.45;5215095;54;1140884;-71
2022/12/10 14:17:08;;;;;;;21.35;11.40;;;;;;;-0.11;100.00;100098.98;5204829;54;1142892;-68
2022/12/10 14:22:47;;;;;;;26.77;13.35;;;;;;;-0.14;100.00;100096.52;5231784;54;1152421;-68
2022/12/10 14:27:54;;;;;;;34.93;19.30;;;;;;;-0.12;100.00;100102.95;5178687;55;1142893;-67
2022/12/10 14:33:01;;;;;;;39.43;19.80;;;;;;;-0.10;100.00;100106.34;5275410;54;1142882;-70
2022/12/10 14:38:07;;;;;;;43.23;20.47;;;;;;;-0.10;100.00;100098.09;5208665;54;1142957;-69
2022/12/10 14:43:37;;;;;;;32.53;16.87;;;;;;;-0.06;100.00;100104.02;5229640;55;1143131;-70
2022/12/10 14:48:43;;;;;;;45.30;19.77;;;;;;;-0.03;100.00;100095.64;5212311;55;1142999;-71
2022/12/10 14:53:51;;;;;;;37.90;17.67;;;;;;;-0.05;100.00;100090.95;5212298;55;1143062;-68
2022/12/10 14:59:13;;;;;;;43.40;21.63;;;;;;;-0.06;100.00;100095.77;5212139;55;1143184;-69
2022/12/10 15:04:21;;;;;;;34.03;14.87;;;;;;;-0.04;100.00;100098.30;5242695;54;1142879;-70
2022/12/10 15:09:28;;;;;;;45.03;20.70;;;;;;;-0.06;100.00;100097.06;5290603;54;1142804;-70
2022/12/10 15:14:36;;;;;;;46.97;19.50;;;;;;;-0.05;100.00;100096.16;5261984;54;1142852;-69
2022/12/10 15:19:41;;;;;;;44.90;20.17;;;;;;;-0.11;100.00;100089.89;5233266;54;1143058;-69
2022/12/10 15:24:47;;;;;;;49.47;22.10;;;;;;;-0.14;100.00;100095.66;5224474;54;1143223;-69
2022/12/10 15:29:53;;;;;;;66.00;31.83;;;;;;;-0.15;100.00;100101.77;5173516;54;1142948;-67
2022/12/10 15:35:06;;;;;;;57.17;27.00;;;;;;;-0.18;100.00;100103.22;5207356;54;1143132;-70
2022/12/10 15:40:30;;;;;;;66.47;25.10;;;;;;;-0.19;100.00;100106.72;5296617;54;1143104;-68
2022/12/10 15:45:42;;;;;;;70.72;24.82;;;;;;;-0.20;100.00;100107.63;5274359;54;1142855;-69
2022/12/10 15:50:49;;;;;;;103.43;32.23;;;;;;;-0.23;100.00;100112.48;5288335;54;1142846;-68
2022/12/10 15:55:56;;;;;;;122.87;37.25;;;;;;;-0.22;100.00;100112.88;5308732;54;1145167;-70
2022/12/10 16:01:03;;;;;;;87.17;33.73;;;;;;;-0.19;100.00;100106.72;5298394;54;1145360;-69
2022/12/10 16:06:08;;;;;;;73.63;28.77;;;;;;;-0.15;100.00;100110.86;5224592;54;1142993;-70
2022/12/10 16:11:19;;;;;;;98.62;30.92;;;;;;;-0.15;100.00;100118.20;5224174;54;1142984;-69
2022/12/10 16:16:27;;;;;;;66.40;28.80;;;;;;;-0.16;100.00;100124.80;5285390;54;1142981;-72
2022/12/10 16:21:33;;;;;;;67.70;28.57;;;;;;;-0.15;100.00;100125.16;5257833;54;1142827;-66
2022/12/10 16:26:39;;;;;;;61.10;23.43;;;;;;;-0.16;100.00;100120.45;5203003;55;1142786;-70
2022/12/10 16:31:44;;;;;;;49.67;22.27;;;;;;;-0.19;100.00;100129.66;5236305;55;1143100;-72
2022/12/10 16:36:50;;;;;;;112.40;45.03;;;;;;;-0.19;100.00;100119.27;5208744;54;1142991;-68
2022/12/10 16:41:56;;;;;;;54.87;25.17;;;;;;;-0.20;100.00;100116.27;5181020;55;1145194;-70
2022/12/10 16:47:02;;;;;;;63.93;27.47;;;;;;;-0.23;100.00;100126.78;5181667;54;1142982;-70
2022/12/10 16:52:10;;;;;;;70.13;28.20;;;;;;;-0.20;100.00;100124.06;5201921;55;1142802;-69
2022/12/10 16:57:16;;;;;;;78.90;33.13;;;;;;;-0.18;100.00;100128.75;5181938;54;1142815;-70
2022/12/10 17:02:22;;;;;;;64.45;30.32;;;;;;;-0.18;100.00;100134.41;5205811;54;1142834;-68
2022/12/10 17:07:28;;;;;;;106.97;41.13;;;;;;;-0.13;100.00;100146.73;5222056;55;1143157;-68
2022/12/10 17:12:33;;;;;;;101.95;41.37;;;;;;;-0.13;100.00;100142.84;5212188;55;1145051;-67
2022/12/10 17:17:40;;;;;;;106.70;41.43;;;;;;;-0.12;100.00;100145.83;5212468;54;1144990;-70
2022/12/10 17:22:45;;;;;;;48.93;20.87;;;;;;;-0.08;100.00;100146.11;5232960;54;1144923;-69
2022/12/10 17:27:51;;;;;;;41.73;19.43;;;;;;;-0.06;100.00;100143.00;5189433;55;1142889;-68
2022/12/10 17:32:57;;;;;;;51.63;21.77;;;;;;;-0.03;100.00;100150.23;5199861;54;1142979;-69
2022/12/10 17:38:02;;;;;;;57.27;22.30;;;;;;;0.05;100.00;100141.27;5205962;55;1142882;-69
2022/12/10 17:43:08;;;;;;;85.03;31.77;;;;;;;-0.01;100.00;100139.32;5233432;54;1141084;-72
2022/12/10 17:48:16;;;;;;;99.63;36.80;;;;;;;0.02;100.00;100142.22;5192428;54;1142956;-71
2022/12/10 17:53:22;;;;;;;86.05;30.32;;;;;;;0.02;100.00;100148.72;5213219;54;1140943;-70
2022/12/10 17:58:29;;;;;;;59.87;26.07;;;;;;;-0.02;100.00;100135.03;5233550;54;1140906;-72
2022/12/10 18:03:37;;;;;;;60.53;26.03;;;;;;;-0.02;100.00;100135.03;5212510;54;1142839;-67
2022/12/10 18:08:43;;;;;;;77.47;33.27;;;;;;;-0.02;100.00;100137.62;5189504;54;1142836;-69
2022/12/10 18:13:49;;;;;;;41.70;19.70;;;;;;;-0.09;100.00;100130.12;5222342;55;1143052;-69
2022/12/10 18:18:56;;;;;;;43.27;18.70;;;;;;;-0.07;100.00;100129.16;5146717;55;1142920;-70
2022/12/10 18:24:01;;;;;;;55.23;24.83;;;;;;;-0.12;100.00;100120.69;5159207;55;1142982;-71
2022/12/10 18:29:08;;;;;;;40.30;18.35;;;;;;;-0.17;100.00;100118.75;5280883;54;1143014;-70
2022/12/10 18:34:16;;;;;;;54.83;21.63;;;;;;;-0.21;100.00;100134.06;5267155;54;1142807;-68
2022/12/10 18:39:28;;;;;;;66.20;23.63;;;;;;;-0.20;100.00;100135.76;5145083;54;1143071;-69
2022/12/10 18:44:34;;;;;;;66.40;27.47;;;;;;;-0.21;100.00;100141.86;5203895;54;1142918;-69
2022/12/10 18:49:40;;;;;;;91.97;36.00;;;;;;;-0.24;100.00;100143.27;5222132;55;1143005;-68
2022/12/10 18:54:45;;;;;;;94.43;33.30;;;;;;;-0.25;100.00;100144.63;5186852;54;1143073;-68
2022/12/10 18:59:51;;;;;;;80.30;30.93;;;;;;;-0.23;100.00;100145.42;5221683;54;1143152;-69
2022/12/10 19:04:57;;;;;;;140.63;54.73;;;;;;;-0.22;100.00;100144.52;5292029;54;1142938;-68
2022/12/10 19:10:05;;;;;;;98.43;35.13;;;;;;;-0.28;100.00;100143.00;5324788;54;1144993;-71
2022/12/10 19:15:13;;;;;;;104.67;33.70;;;;;;;-0.26;100.00;100142.94;5304042;54;1142800;-67
2022/12/10 19:20:23;;;;;;;92.27;34.90;;;;;;;-0.28;100.00;100143.45;5266584;54;1144989;-68
2022/12/10 19:25:28;;;;;;;62.70;26.00;;;;;;;-0.29;100.00;100142.59;5243590;54;1143071;-69
2022/12/10 19:30:34;;;;;;;56.75;26.90;;;;;;;-0.28;100.00;100148.19;5206476;54;1142954;-71
2022/12/10 19:35:41;;;;;;;56.23;22.63;;;;;;;-0.29;100.00;100145.20;5120248;54;1143006;-66
2022/12/10 19:40:47;;;;;;;41.20;19.07;;;;;;;-0.33;100.00;100145.40;5111423;55;1142944;-71
2022/12/10 19:45:53;;;;;;;53.13;22.27;;;;;;;-0.37;100.00;100157.66;5091508;55;1143208;-66
2022/12/10 19:50:58;;;;;;;54.13;21.50;;;;;;;-0.32;100.00;100166.13;5129154;55;1142849;-69
2022/12/10 19:56:10;;;;;;;40.52;19.17;;;;;;;-0.27;100.00;100160.73;5115042;55;1143223;-69
2022/12/10 20:01:18;;;;;;;62.48;30.85;;;;;;;-0.22;100.00;100150.56;5117392;56;1142866;-68
2022/12/10 20:06:31;;;;;;;47.95;21.30;;;;;;;-0.24;100.00;100143.27;5119803;55;1143068;-70
2022/12/10 20:11:37;;;;;;;53.83;23.90;;;;;;;-0.23;100.00;100143.67;5139760;54;1143065;-66
2022/12/10 20:16:43;;;;;;;48.23;21.50;;;;;;;-0.27;100.00;100140.79;5172818;55;1142896;-71
2022/12/10 20:21:48;;;;;;;78.27;34.57;;;;;;;-0.29;100.00;100148.25;5194119;55;1143007;-71
2022/12/10 20:26:54;;;;;;;78.03;32.80;;;;;;;-0.27;100.00;100149.04;5202897;54;1143067;-69
2022/12/10 20:32:00;;;;;;;75.43;31.60;;;;;;;-0.24;100.00;100148.92;5204793;54;1143038;-71
2022/12/10 20:37:06;;;;;;;106.67;44.15;;;;;;;-0.20;100.00;100149.20;5270268;54;1143132;-67
2022/12/10 20:42:11;;;;;;;102.03;39.80;;;;;;;-0.19;100.00;100143.10;5247720;54;1145013;-69
2022/12/10 20:47:17;;;;;;;86.93;34.37;;;;;;;-0.14;100.00;100145.05;5246636;54;1145148;-69
2022/12/10 20:52:23;;;;;;;60.83;23.53;;;;;;;-0.12;100.00;100138.88;5271971;54;1143019;-68
2022/12/10 20:57:29;;;;;;;51.53;23.27;;;;;;;-0.11;100.00;100148.38;5247282;54;1142901;-68
2022/12/10 21:02:34;;;;;;;60.60;22.70;;;;;;;-0.10;100.00;100141.42;5244406;54;1142889;-71
2022/12/10 21:07:40;;;;;;;79.93;34.17;;;;;;;-0.14;100.00;100142.45;5269120;54;1143138;-68
2022/12/10 21:12:46;;;;;;;73.57;30.70;;;;;;;-0.13;100.00;100141.54;5250259;54;1143044;-70
2022/12/10 21:17:52;;;;;;;55.70;21.50;;;;;;;-0.16;100.00;100143.84;5245484;54;1143053;-68
2022/12/10 21:22:57;;;;;;;56.30;23.53;;;;;;;-0.22;100.00;100140.62;5193558;54;1143245;-67
2022/12/10 21:28:04;;;;;;;42.80;20.33;;;;;;;-0.33;100.00;100135.01;5194098;54;1142909;-68
2022/12/10 21:33:11;;;;;;;55.93;24.73;;;;;;;-0.33;100.00;100135.01;5167403;54;1142887;-68
2022/12/10 21:38:18;;;;;;;62.70;26.05;;;;;;;-0.36;100.00;100136.81;5048816;56;1152267;-71
2022/12/10 21:43:26;;;;;;;75.05;24.30;;;;;;;-0.37;100.00;100138.17;5047410;56;1142966;-67
2022/12/10 21:48:31;;;;;;;54.30;19.73;;;;;;;-0.40;100.00;100127.44;5173133;54;1142895;-71
2022/12/10 21:53:37;;;;;;;52.03;21.73;;;;;;;-0.38;100.00;100130.83;5184195;54;1142977;-68
2022/12/10 21:58:44;;;;;;;53.40;22.37;;;;;;;-0.39;100.00;100131.73;5191346;54;1142975;-70
2022/12/10 22:03:50;;;;;;;50.67;21.97;;;;;;;-0.36;100.00;100132.07;5168520;54;1142948;-73
2022/12/10 22:08:55;;;;;;;50.63;23.35;;;;;;;-0.32;100.00;100130.20;5176833;54;1142887;-71
2022/12/10 22:14:01;;;;;;;41.42;20.08;;;;;;;-0.27;100.00;100136.05;5167056;54;1142958;-68
2022/12/10 22:19:07;;;;;;;38.13;18.23;;;;;;;-0.24;100.00;100127.69;5206834;54;1142957;-72
2022/12/10 22:24:16;;;;;;;43.20;20.07;;;;;;;-0.23;100.00;100121.58;5213713;54;1143225;-68
2022/12/10 22:29:23;;;;;;;55.70;22.57;;;;;;;-0.25;100.00;100115.59;5245003;54;1142946;-69
2022/12/10 22:34:33;;;;;;;43.90;20.40;;;;;;;-0.27;100.00;100107.01;5239771;54;1142862;-69
2022/12/10 22:39:38;;;;;;;42.73;20.90;;;;;;;-0.27;100.00;100109.61;5254724;54;1142901;-69
2022/12/10 22:44:45;;;;;;;49.73;22.30;;;;;;;-0.28;100.00;100109.22;5264089;54;1142979;-69
2022/12/10 22:49:51;;;;;;;48.33;26.03;;;;;;;-0.28;100.00;100107.91;5313064;54;1142967;-71
2022/12/10 22:54:58;;;;;;;37.13;18.47;;;;;;;-0.32;100.00;100111.56;5251193;54;1143033;-67
2022/12/10 23:00:10;;;;;;;32.95;17.75;;;;;;;-0.32;100.00;100113.31;5223363;54;1143033;-72